KOLF/OLF METAR and TAF weather

Enter ICAO airport designator
Station Type Date Time Source
KOLF METAR 2019/06/18 04:53 UTC NOAA

KOLF 180453Z AUTO 06003KT 10SM CLR 12/08 A3007 RMK AO2 SLP185 T01220078


Station Type Date Time Source
KOLF Decoded METAR 2019/06/18 04:53 UTC NOAA

WOLF POINT CLAYTON AIRPORT, MT, United States (KOLF) 48-06N 105-35W 604M
Jun 18, 2019 - 12:53 AM EDT / 2019.06.18 0453 UTC
Wind: from the ENE (060 degrees) at 3 MPH (3 KT):0
Visibility: 10 mile(s):0
Sky conditions: clear
Temperature: 54.0 F (12.2 C)
Dew Point: 46.0 F (7.8 C)
Relative Humidity: 74%
Pressure (altimeter): 30.07 in. Hg (1018 hPa)
ob: KOLF 180453Z AUTO 06003KT 10SM CLR 12/08 A3007 RMK AO2 SLP185 T01220078
cycle: 5

Station Type Date Time Source
KOLF TAF 2019/06/18 06:24 UTC NOAA

TAF KOLF 180522Z 1806/1906 VRB05KT P6SM FEW100
FM182300 VRB06KT P6SM BKN070
FM190000 VRB05KT P6SM -SHRA BKN080

Example: see airport list